Time;durP1;ratioP1;P1;durP2;ratioP2;P2;SDS_P1;SDS_P2;PMS_P1;PMS_P2;Temp;Humidity;BMP_temperature;BMP_pressure;BME280_temperature;BME280_humidity;BME280_pressure;Samples;Min_cycle;Max_cycle;Signal;HPM_P1;HPM_P2
2022/05/06 00:00:41;;;;;;;12.68;6.25;;;;;;;3.42;58.06;101222.09;1763692;81;21741;-70
2022/05/06 00:03:08;;;;;;;15.90;6.60;;;;;;;3.44;58.61;101223.43;1763740;81;21048;-70
2022/05/06 00:05:34;;;;;;;12.68;5.72;;;;;;;3.43;59.00;101226.47;1763968;81;21028;-71
2022/05/06 00:08:01;;;;;;;16.85;6.40;;;;;;;3.41;59.06;101223.41;1763484;81;21274;-71
2022/05/06 00:10:28;;;;;;;15.85;6.37;;;;;;;3.39;59.38;101225.12;1780510;80;21113;-72
2022/05/06 00:12:56;;;;;;;11.57;5.53;;;;;;;3.36;60.36;101235.08;1781680;80;21546;-70
2022/05/06 00:15:23;;;;;;;11.00;5.87;;;;;;;3.30;60.21;101231.97;1781489;80;21041;-70
2022/05/06 00:17:50;;;;;;;15.65;6.55;;;;;;;3.26;60.86;101235.83;1781647;80;21100;-71
2022/05/06 00:20:17;;;;;;;18.12;6.67;;;;;;;3.22;60.79;101233.64;1781720;80;22147;-71
2022/05/06 00:22:44;;;;;;;12.63;6.35;;;;;;;3.20;60.84;101231.44;1781422;80;21049;-72
2022/05/06 00:25:11;;;;;;;18.05;5.90;;;;;;;3.15;61.04;101228.78;1781448;80;21017;-71
2022/05/06 00:27:41;;;;;;;20.37;7.28;;;;;;;3.11;61.33;101225.70;1781463;80;21040;-71
2022/05/06 00:30:10;;;;;;;11.80;5.20;;;;;;;3.09;61.78;101227.41;1781651;80;21108;-72
2022/05/06 00:32:37;;;;;;;18.95;6.22;;;;;;;3.09;62.06;101226.11;1781685;80;21202;-71
2022/05/06 00:35:05;;;;;;;12.40;6.17;;;;;;;3.08;62.18;101225.67;1781586;79;21112;-71
2022/05/06 00:37:32;;;;;;;13.95;5.87;;;;;;;3.09;62.26;101228.71;1781502;80;22203;-71
2022/05/06 00:40:00;;;;;;;11.78;6.08;;;;;;;3.11;62.25;101228.30;1781554;80;21093;-70
2022/05/06 00:42:27;;;;;;;12.25;6.03;;;;;;;3.14;62.00;101228.33;1781584;80;21050;-69
2022/05/06 00:44:54;;;;;;;15.28;6.33;;;;;;;3.14;61.46;101228.33;1781444;80;21097;-70
2022/05/06 00:47:22;;;;;;;11.93;6.33;;;;;;;3.13;61.75;101226.59;1781563;80;21479;-71
2022/05/06 00:49:49;;;;;;;15.80;6.25;;;;;;;3.15;61.97;101229.19;1781426;80;21081;-71
2022/05/06 00:52:19;;;;;;;17.17;6.62;;;;;;;3.12;61.77;101223.96;1781459;80;21099;-70
2022/05/06 00:54:46;;;;;;;13.55;6.30;;;;;;;3.11;61.99;101225.70;1781575;80;21622;-70
2022/05/06 00:57:13;;;;;;;15.00;6.20;;;;;;;3.11;61.76;101223.09;1781464;80;21570;-70
2022/05/06 01:02:27;;;;;;;14.25;5.90;;;;;;;3.04;61.76;101215.21;1781173;80;21982;-70
2022/05/06 01:04:55;;;;;;;16.40;6.47;;;;;;;3.01;62.36;101221.23;1781747;80;21003;-71
2022/05/06 01:07:23;;;;;;;13.10;6.60;;;;;;;3.02;62.22;101226.89;1781565;80;21047;-73
2022/05/06 01:09:50;;;;;;;10.93;5.40;;;;;;;3.00;62.05;101228.61;1781487;80;21567;-72
2022/05/06 01:12:17;;;;;;;12.13;5.83;;;;;;;2.99;62.21;101223.37;1781494;80;21086;-70
2022/05/06 01:14:45;;;;;;;12.47;6.22;;;;;;;2.95;62.48;101225.08;1781366;80;21027;-69
2022/05/06 01:17:16;;;;;;;15.18;6.62;;;;;;;2.91;62.70;101219.39;1779393;80;21114;-69
2022/05/06 01:19:43;;;;;;;17.67;6.92;;;;;;;2.89;63.05;101218.49;1781734;80;21062;-69
2022/05/06 01:22:10;;;;;;;17.75;7.33;;;;;;;2.84;63.51;101217.58;1781483;80;21216;-69
2022/05/06 01:24:37;;;;;;;13.62;6.62;;;;;;;2.79;64.39;101229.66;1751034;80;21038;-70
2022/05/06 01:27:07;;;;;;;15.15;6.25;;;;;;;2.73;64.60;101226.10;1781617;80;21039;-71
2022/05/06 01:29:38;;;;;;;17.47;7.43;;;;;;;2.70;63.98;101231.28;1781816;80;21046;-71
2022/05/06 01:32:06;;;;;;;13.05;6.42;;;;;;;2.67;64.43;101228.65;1782167;80;21705;-71
2022/05/06 01:34:33;;;;;;;14.03;6.40;;;;;;;2.62;64.47;101229.02;1781614;80;21147;-70
2022/05/06 01:37:04;;;;;;;14.73;6.72;;;;;;;2.57;64.44;101231.97;1781764;80;22282;-70
2022/05/06 01:39:34;;;;;;;14.20;6.33;;;;;;;2.52;64.47;101223.23;1781754;80;21052;-69
2022/05/06 01:42:05;;;;;;;11.80;6.05;;;;;;;2.47;64.78;101230.11;1781593;80;21026;-70
2022/05/06 01:44:40;;;;;;;12.68;5.95;;;;;;;2.43;65.04;101230.91;1779831;80;21061;-69
2022/05/06 01:47:19;;;;;;;14.50;6.92;;;;;;;2.39;65.30;101235.17;1781539;80;21541;-69
2022/05/06 01:49:47;;;;;;;10.38;5.75;;;;;;;2.36;65.82;101230.37;1781751;80;21072;-70
2022/05/06 01:52:17;;;;;;;16.07;7.30;;;;;;;2.33;66.21;101238.15;1781535;80;21089;-69
2022/05/06 01:54:45;;;;;;;12.75;7.08;;;;;;;2.27;66.87;101237.61;1781666;80;21368;-70
2022/05/06 01:57:11;;;;;;;18.75;7.53;;;;;;;2.24;67.35;101243.64;1781568;80;21054;-69
2022/05/06 01:59:38;;;;;;;12.93;7.22;;;;;;;2.16;67.11;101241.34;1781519;80;21251;-69
2022/05/06 02:02:07;;;;;;;16.70;7.62;;;;;;;2.12;67.09;101247.37;1777654;80;21033;-71
2022/05/06 02:07:21;;;;;;;18.82;8.90;;;;;;;2.02;67.59;101249.36;1781630;80;20997;-70
2022/05/06 02:09:49;;;;;;;17.40;9.25;;;;;;;1.96;68.18;101247.55;1781519;80;21062;-70
2022/05/06 02:12:18;;;;;;;14.18;7.58;;;;;;;1.93;68.16;101254.41;1781088;80;21602;-70
2022/05/06 02:14:50;;;;;;;18.27;8.33;;;;;;;1.86;68.47;101245.23;1779930;80;21561;-69
2022/05/06 02:17:18;;;;;;;14.18;7.10;;;;;;;1.81;68.83;101257.25;1739371;80;21510;-70
2022/05/06 02:19:49;;;;;;;18.82;8.10;;;;;;;1.76;68.96;101252.41;1778894;80;21065;-70
2022/05/06 02:22:18;;;;;;;17.17;6.60;;;;;;;1.71;69.40;101252.76;1772815;80;21096;-70
2022/05/06 02:25:09;;;;;;;17.20;8.73;;;;;;;1.66;69.48;101259.60;1781502;80;22059;-70
2022/05/06 02:27:39;;;;;;;13.83;7.22;;;;;;;1.63;69.90;101263.42;1772221;80;21025;-71
2022/05/06 02:33:15;;;;;;;16.95;7.83;;;;;;;1.55;70.76;101262.00;1755681;80;21055;-69
2022/05/06 02:35:43;;;;;;;19.73;8.60;;;;;;;1.49;70.63;101264.47;1750280;81;21583;-69
2022/05/06 02:38:12;;;;;;;15.28;7.53;;;;;;;1.49;70.23;101267.50;1750427;82;21222;-70
2022/05/06 02:40:40;;;;;;;19.10;8.33;;;;;;;1.49;70.23;101267.50;1750628;82;21044;-71
2022/05/06 02:43:08;;;;;;;13.62;6.80;;;;;;;1.48;70.06;101270.96;1750470;82;21655;-70
2022/05/06 02:45:37;;;;;;;21.60;8.08;;;;;;;1.45;69.78;101271.35;1750371;82;21003;-71
2022/05/06 02:48:06;;;;;;;14.65;6.87;;;;;;;1.42;70.09;101264.78;1750481;82;21048;-70
2022/05/06 02:50:36;;;;;;;18.82;8.58;;;;;;;1.45;70.38;101266.59;1750898;82;21210;-70
2022/05/06 02:53:04;;;;;;;15.18;7.62;;;;;;;1.46;70.71;101264.00;1750488;82;21082;-70
2022/05/06 02:55:32;;;;;;;19.77;9.00;;;;;;;1.48;71.20;101269.66;1750730;82;21055;-71
2022/05/06 02:57:58;;;;;;;21.48;8.75;;;;;;;1.49;71.49;101264.47;1750452;82;21024;-71
2022/05/06 03:00:27;;;;;;;19.05;8.50;;;;;;;1.51;71.48;101261.92;1750726;82;21019;-71
2022/05/06 03:02:56;;;;;;;20.00;8.70;;;;;;;1.55;71.45;101270.22;1750864;82;21063;-71
2022/05/06 03:05:25;;;;;;;21.17;8.63;;;;;;;1.62;71.88;101267.75;1750663;82;21016;-71
2022/05/06 03:07:52;;;;;;;19.90;8.35;;;;;;;1.72;71.80;101268.78;1731653;82;22115;-71
2022/05/06 03:10:19;;;;;;;19.30;7.92;;;;;;;1.78;71.90;101261.10;1750722;82;22133;-70
2022/05/06 03:12:50;;;;;;;18.30;7.58;;;;;;;1.94;71.26;101261.37;1750656;82;21094;-71
2022/05/06 03:15:17;;;;;;;;;;;;;;;2.13;71.25;101265.99;1753122;82;21274;-71
2022/05/06 03:17:45;;;;;;;17.32;7.30;;;;;;;2.36;70.40;101270.67;1749577;81;20144;-71
2022/05/06 03:20:13;;;;;;;17.35;7.75;;;;;;;2.62;69.78;101263.23;1750698;82;21118;-71
2022/05/06 03:22:46;;;;;;;13.62;6.33;;;;;;;3.12;69.45;101265.61;1750991;82;21138;-70
2022/05/06 03:25:13;;;;;;;18.23;6.78;;;;;;;3.84;67.51;101271.54;1750665;82;21578;-70
2022/05/06 03:27:59;;;;;;;12.73;6.45;;;;;;;4.68;65.23;101266.06;1750612;82;21106;-70
2022/05/06 03:30:26;;;;;;;15.70;7.33;;;;;;;5.51;63.23;101267.67;1750708;82;21064;-71
2022/05/06 03:32:55;;;;;;;15.00;6.60;;;;;;;6.33;60.09;101262.07;1749589;81;21018;-72
2022/05/06 03:35:23;;;;;;;16.48;6.20;;;;;;;7.00;57.16;101266.69;1751464;80;21588;-71
2022/05/06 03:37:51;;;;;;;16.55;6.08;;;;;;;7.64;53.82;101258.47;1773549;80;21073;-71
2022/05/06 03:40:18;;;;;;;20.45;7.00;;;;;;;8.27;47.45;101271.52;1773507;80;21139;-72
2022/05/06 03:42:46;;;;;;;14.18;5.45;;;;;;;8.77;47.25;101259.66;1773701;80;21085;-72
2022/05/06 03:45:13;;;;;;;17.32;6.12;;;;;;;9.36;46.15;101260.66;1774427;80;21108;-72
2022/05/06 03:47:41;;;;;;;13.32;5.30;;;;;;;9.92;43.03;101266.41;1738133;82;21260;-70
2022/05/06 03:52:56;;;;;;;10.68;5.03;;;;;;;10.52;38.94;101267.58;1774675;80;21229;-70
2022/05/06 03:55:23;;;;;;;11.22;4.78;;;;;;;10.89;39.23;101272.99;1775242;80;21073;-69
2022/05/06 03:57:51;;;;;;;15.85;5.35;;;;;;;11.26;38.43;101267.41;1774989;80;21010;-71
2022/05/06 04:00:19;;;;;;;11.88;5.05;;;;;;;11.55;36.05;101272.91;1774920;80;20990;-70
2022/05/06 04:02:48;;;;;;;10.48;4.62;;;;;;;11.64;34.68;101266.98;1774615;80;21112;-72
2022/05/06 04:05:16;;;;;;;8.80;4.58;;;;;;;11.80;35.16;101278.94;1774363;80;21097;-70
2022/05/06 04:07:43;;;;;;;15.55;4.45;;;;;;;12.04;33.45;101274.86;1774876;80;21089;-72
2022/05/06 04:10:10;;;;;;;8.30;4.15;;;;;;;12.24;33.54;101280.97;1773664;80;21061;-71
2022/05/06 04:12:39;;;;;;;10.75;4.12;;;;;;;12.49;33.28;101275.02;1773411;80;21053;-70
2022/05/06 04:15:09;;;;;;;13.68;4.05;;;;;;;12.85;32.32;101276.25;1773395;80;21116;-70
2022/05/06 04:17:36;;;;;;;7.25;4.12;;;;;;;13.27;32.81;101274.59;1773536;80;21629;-71
2022/05/06 04:25:38;;;;;;;13.08;4.20;;;;;;;13.87;30.30;101274.94;1773434;80;21057;-72
2022/05/06 04:28:05;;;;;;;5.97;3.70;;;;;;;13.77;30.12;101273.52;1750951;80;21081;-72
2022/05/06 04:30:34;;;;;;;8.60;3.90;;;;;;;13.87;30.49;101270.97;1773576;80;21237;-72
2022/05/06 04:33:03;;;;;;;8.33;4.10;;;;;;;14.09;29.95;101276.91;1772908;80;21035;-72
2022/05/06 04:35:30;;;;;;;11.35;4.53;;;;;;;14.37;29.65;101273.70;1773532;80;21135;-72
2022/05/06 04:37:57;;;;;;;6.95;4.35;;;;;;;14.55;29.32;101275.36;1781032;79;21521;-71
2022/05/06 04:40:24;;;;;;;8.05;3.87;;;;;;;14.55;29.65;101282.84;1781929;80;21063;-72
2022/05/06 05:00:26;;;;;;;12.05;5.47;;;;;;;16.42;28.65;101285.31;1809212;79;22080;-71
2022/05/06 05:02:53;;;;;;;11.15;5.35;;;;;;;16.62;28.06;101288.45;1694086;83;21111;-72
2022/05/06 05:05:21;;;;;;;14.18;6.05;;;;;;;16.85;28.25;101287.45;1722872;83;21215;-74
2022/05/06 05:07:48;;;;;;;10.58;5.22;;;;;;;17.21;27.88;101285.40;1723178;83;21055;-71
2022/05/06 05:10:15;;;;;;;13.98;5.28;;;;;;;17.54;27.88;101288.73;1722977;83;21062;-71
2022/05/06 05:12:43;;;;;;;10.35;4.78;;;;;;;17.78;27.08;101279.57;1723170;83;21116;-71
2022/05/06 05:15:11;;;;;;;12.13;4.78;;;;;;;17.88;27.26;101272.48;1722979;83;21004;-71
2022/05/06 05:17:39;;;;;;;7.42;4.15;;;;;;;18.13;26.77;101278.31;1723058;83;21231;-73
2022/05/06 05:20:09;;;;;;;10.93;4.85;;;;;;;18.14;26.17;101277.84;1722845;83;20993;-72
2022/05/06 05:22:37;;;;;;;8.75;4.85;;;;;;;18.21;26.62;101273.45;1723284;83;21558;-70
2022/05/06 05:25:07;;;;;;;15.13;5.33;;;;;;;18.48;26.53;101279.66;1723086;83;21034;-72
2022/05/06 05:27:36;;;;;;;6.12;3.85;;;;;;;18.66;25.70;101282.69;1723269;83;21609;-70
2022/05/06 05:30:06;;;;;;;8.88;4.40;;;;;;;18.42;25.56;101285.30;1694052;83;21537;-73
2022/05/06 05:32:34;;;;;;;12.73;4.25;;;;;;;18.38;25.79;101286.38;1719376;83;21054;-73
2022/05/06 05:35:01;;;;;;;13.80;5.67;;;;;;;18.42;26.35;101278.63;1717123;83;21038;-70
2022/05/06 05:37:30;;;;;;;12.85;4.87;;;;;;;18.51;26.37;101278.14;1707131;84;21087;-71
2022/05/06 05:39:59;;;;;;;8.38;3.75;;;;;;;18.49;26.00;101285.36;1748110;82;21152;-72
2022/05/06 05:42:27;;;;;;;9.08;4.30;;;;;;;18.53;26.46;101285.60;1745132;82;21225;-72
2022/05/06 05:50:29;;;;;;;9.53;4.15;;;;;;;18.53;26.43;101290.08;1697191;83;21061;-71
2022/05/06 05:52:58;;;;;;;7.62;4.10;;;;;;;18.61;25.91;101289.20;1679458;85;21060;-72
2022/05/06 05:55:29;;;;;;;7.75;3.85;;;;;;;18.78;25.91;101281.69;1679183;85;21330;-71
2022/05/06 05:57:56;;;;;;;8.95;3.58;;;;;;;19.08;25.94;101284.52;1678981;84;21104;-71
2022/05/06 06:00:24;;;;;;;9.80;3.50;;;;;;;19.52;25.23;101285.69;1666378;85;21085;-74
2022/05/06 06:02:53;;;;;;;6.83;3.27;;;;;;;19.79;25.20;101284.15;1653244;86;21073;-72
2022/05/06 06:05:20;;;;;;;7.62;3.80;;;;;;;19.91;24.35;101292.78;1710383;83;21072;-71
2022/05/06 06:07:46;;;;;;;11.50;3.62;;;;;;;20.07;24.57;101287.89;1710598;83;21110;-72
2022/05/06 06:10:14;;;;;;;9.80;3.90;;;;;;;20.22;24.38;101288.34;1710136;83;21061;-72
2022/05/06 06:12:42;;;;;;;8.45;3.15;;;;;;;20.38;24.01;101282.91;1709973;83;21126;-72
2022/05/06 06:15:10;;;;;;;8.60;3.42;;;;;;;20.58;23.90;101291.13;1709602;83;21559;-73
2022/05/06 06:17:36;;;;;;;8.18;3.20;;;;;;;20.59;23.90;101282.16;1709811;83;21152;-72
2022/05/06 06:20:07;;;;;;;6.00;2.92;;;;;;;20.73;23.76;101279.49;1709474;83;21140;-73
2022/05/06 06:22:36;;;;;;;5.22;3.08;;;;;;;20.82;23.29;101287.89;1708905;83;21097;-73
2022/05/06 06:25:07;;;;;;;6.87;2.75;;;;;;;20.68;23.11;101282.05;1709810;83;21125;-71
2022/05/06 06:27:34;;;;;;;5.40;2.67;;;;;;;20.61;23.25;101277.55;1683393;83;21068;-72
2022/05/06 06:30:05;;;;;;;9.80;2.77;;;;;;;20.56;22.81;101279.65;1709472;83;21090;-73
2022/05/06 06:32:33;;;;;;;12.68;3.25;;;;;;;20.58;23.25;101272.39;1709642;83;21261;-71
2022/05/06 06:35:00;;;;;;;5.10;2.22;;;;;;;20.80;22.89;101267.05;1709595;83;21050;-73
2022/05/06 06:37:32;;;;;;;6.85;2.60;;;;;;;20.82;22.02;101274.51;1708683;83;21074;-73
2022/05/06 06:40:01;;;;;;;7.90;2.40;;;;;;;20.82;22.25;101274.51;1709750;83;21037;-73
2022/05/06 06:42:30;;;;;;;6.53;2.45;;;;;;;20.94;22.28;101275.96;1709606;82;21223;-73
2022/05/06 06:45:16;;;;;;;8.13;2.35;;;;;;;21.13;21.99;101270.30;1709668;83;21171;-72
2022/05/06 06:47:54;;;;;;;23.85;2.42;;;;;;;21.48;22.05;101272.57;1708832;83;21583;-72
2022/05/06 06:50:23;;;;;;;10.28;2.30;;;;;;;21.68;20.71;101266.41;1692832;83;21038;-72
2022/05/06 06:53:09;;;;;;;6.00;2.10;;;;;;;21.75;21.20;101267.72;1709661;83;21541;-72
2022/05/06 06:55:36;;;;;;;5.97;2.00;;;;;;;21.83;20.03;101269.39;1709635;83;21105;-72
2022/05/06 06:58:03;;;;;;;3.02;1.50;;;;;;;21.84;20.51;101267.60;1709761;82;21302;-74
2022/05/06 07:00:32;;;;;;;6.12;1.90;;;;;;;21.62;18.83;101274.84;1731205;82;21037;-72
2022/05/06 07:02:59;;;;;;;4.87;2.00;;;;;;;21.19;20.45;101272.20;1737817;82;21013;-72
2022/05/06 07:05:26;;;;;;;7.45;1.95;;;;;;;21.03;20.72;101280.38;1738097;82;21040;-72
2022/05/06 07:13:22;;;;;;;5.58;1.87;;;;;;;21.04;19.54;101272.22;1738204;82;21057;-70
2022/05/06 07:15:49;;;;;;;3.83;1.75;;;;;;;21.39;19.47;101266.44;1738242;82;21039;-73
2022/05/06 07:18:15;;;;;;;5.12;1.80;;;;;;;21.81;19.33;101267.33;1737936;82;21114;-71
2022/05/06 07:20:42;;;;;;;2.67;1.72;;;;;;;21.78;19.20;101267.02;1737834;82;21029;-72
2022/05/06 07:23:10;;;;;;;3.30;1.65;;;;;;;21.90;18.70;101264.03;1738293;82;21277;-72
2022/05/06 07:25:37;;;;;;;5.15;1.80;;;;;;;22.16;18.31;101266.30;1737848;82;21071;-72
2022/05/06 07:28:05;;;;;;;5.33;1.60;;;;;;;22.12;17.84;101261.23;1734354;82;21080;-73
2022/05/06 07:30:31;;;;;;;3.67;1.60;;;;;;;21.55;18.07;101267.19;1704794;84;21097;-74
2022/05/06 07:32:58;;;;;;;3.72;1.85;;;;;;;21.33;18.40;101268.19;1732338;82;21020;-74
2022/05/06 07:35:25;;;;;;;3.10;2.10;;;;;;;21.28;18.66;101259.11;1737852;82;21212;-72
2022/05/06 07:37:52;;;;;;;4.40;1.95;;;;;;;21.61;18.59;101265.09;1737888;82;21065;-72
2022/05/06 07:40:19;;;;;;;9.20;2.25;;;;;;;21.73;17.03;101258.43;1737826;82;21498;-73
2022/05/06 07:42:50;;;;;;;5.40;1.80;;;;;;;21.85;16.88;101262.11;1738023;81;21199;-71
2022/05/06 07:45:16;;;;;;;9.43;2.10;;;;;;;21.98;17.23;101261.68;1737294;82;21061;-73
2022/05/06 07:47:43;;;;;;;2.90;1.62;;;;;;;22.13;17.14;101262.95;1737789;82;21129;-73
2022/05/06 07:50:10;;;;;;;2.80;1.72;;;;;;;22.10;16.80;101261.82;1737707;82;20980;-71
2022/05/06 07:52:37;;;;;;;9.93;1.92;;;;;;;21.85;16.92;101263.45;1737883;82;21084;-73
2022/05/06 07:55:06;;;;;;;6.95;2.22;;;;;;;21.97;17.50;101262.66;1737713;82;21561;-72
2022/05/06 07:57:33;;;;;;;3.17;1.82;;;;;;;22.45;17.59;101259.92;1737895;81;21437;-73
2022/05/06 07:59:59;;;;;;;6.03;2.37;;;;;;;22.63;16.62;101264.02;1741047;82;21099;-70
2022/05/06 08:05:11;;;;;;;5.62;2.12;;;;;;;22.70;16.88;101260.42;1746104;82;21071;-72
2022/05/06 08:07:38;;;;;;;4.80;2.30;;;;;;;22.53;16.95;101256.24;1746192;82;20996;-72
2022/05/06 08:10:06;;;;;;;7.37;2.12;;;;;;;22.43;17.49;101261.39;1745976;82;21028;-74
2022/05/06 08:12:33;;;;;;;4.92;2.00;;;;;;;22.41;17.62;101261.48;1745837;82;21150;-71
2022/05/06 08:15:00;;;;;;;3.60;1.87;;;;;;;22.30;17.45;101257.83;1745946;82;21072;-72
2022/05/06 08:17:27;;;;;;;6.28;2.10;;;;;;;22.29;17.67;101255.63;1745649;82;21029;-73
2022/05/06 08:19:55;;;;;;;5.17;1.67;;;;;;;22.74;17.61;101256.07;1745950;82;21037;-71
2022/05/06 08:22:22;;;;;;;4.97;2.10;;;;;;;23.18;16.85;101253.41;1746068;82;21000;-71
2022/05/06 08:24:49;;;;;;;4.12;1.95;;;;;;;23.24;17.08;101254.81;1745854;82;21513;-71
2022/05/06 08:27:16;;;;;;;5.03;1.90;;;;;;;23.32;16.99;101251.06;1745851;82;22380;-72
2022/05/06 08:29:42;;;;;;;8.60;2.20;;;;;;;23.61;16.93;101247.59;1745757;82;21040;-71
2022/05/06 08:32:10;;;;;;;3.55;1.77;;;;;;;23.84;15.90;101237.83;1709772;83;21046;-72
2022/05/06 08:34:37;;;;;;;6.03;2.15;;;;;;;23.45;16.94;101251.03;1697760;83;21097;-72
2022/05/06 08:37:03;;;;;;;7.95;2.10;;;;;;;23.09;17.10;101248.70;1724278;83;21272;-71
2022/05/06 08:39:31;;;;;;;5.95;2.10;;;;;;;22.91;17.21;101254.02;1724126;83;21142;-73
2022/05/06 08:41:58;;;;;;;4.00;2.00;;;;;;;22.50;16.96;101253.29;1724395;83;21090;-71
2022/05/06 08:52:43;;;;;;;4.92;2.33;;;;;;;21.89;18.37;101235.48;1724124;83;21110;-73
2022/05/06 08:55:10;;;;;;;3.90;2.60;;;;;;;22.52;18.12;101234.38;1724295;83;21106;-73
2022/05/06 08:57:37;;;;;;;6.22;2.42;;;;;;;22.72;17.84;101235.17;1724242;81;21126;-70
2022/05/06 09:00:09;;;;;;;4.20;2.47;;;;;;;22.83;17.54;101232.59;1720552;83;21111;-73
2022/05/06 09:02:39;;;;;;;6.70;4.12;;;;;;;23.01;17.97;101224.23;1711290;83;21309;-72
2022/05/06 09:05:16;;;;;;;3.35;2.20;;;;;;;23.23;17.22;101224.37;1711257;83;21080;-71
2022/05/06 09:08:05;;;;;;;4.40;2.33;;;;;;;22.79;17.10;101228.40;1711571;83;21619;-71
2022/05/06 09:10:31;;;;;;;5.90;2.83;;;;;;;22.64;17.74;101224.14;1711167;83;21056;-73
2022/05/06 09:13:00;;;;;;;5.47;3.47;;;;;;;22.86;17.80;101227.98;1711502;83;22239;-71
2022/05/06 09:18:19;;;;;;;5.22;2.10;;;;;;;22.53;17.13;101220.00;1709143;82;21065;-72
2022/05/06 09:20:47;;;;;;;4.08;2.00;;;;;;;22.60;16.97;101223.48;1704706;84;21049;-72
2022/05/06 09:23:25;;;;;;;7.58;2.47;;;;;;;22.94;16.83;101214.88;1704555;84;21901;-72
2022/05/06 09:25:53;;;;;;;8.00;3.27;;;;;;;23.24;16.71;101211.32;1704985;84;21566;-72
2022/05/06 09:28:29;;;;;;;12.78;3.20;;;;;;;23.31;16.58;101227.86;1704884;84;21143;-73
2022/05/06 09:31:04;;;;;;;6.60;2.40;;;;;;;22.98;16.55;101213.66;1704727;84;21113;-73
2022/05/06 09:33:35;;;;;;;5.83;2.42;;;;;;;22.66;16.97;101219.52;1712823;83;21049;-73
2022/05/06 09:36:25;;;;;;;3.47;2.00;;;;;;;22.57;17.01;101212.12;1712736;83;21065;-74
2022/05/06 09:39:03;;;;;;;;;;;;;;;22.51;16.77;101200.45;1715654;83;21070;-74
2022/05/06 09:41:31;;;;;;;9.33;2.70;;;;;;;22.54;17.14;101206.94;1712970;83;21112;-73
2022/05/06 09:44:01;;;;;;;9.88;2.27;;;;;;;22.61;17.11;101210.91;1712822;82;21581;-74
2022/05/06 09:46:28;;;;;;;6.10;2.02;;;;;;;22.54;17.59;101216.34;1712631;83;21581;-73
2022/05/06 09:48:59;;;;;;;2.87;2.00;;;;;;;22.33;17.55;101216.02;1713080;83;21619;-73
2022/05/06 09:51:35;;;;;;;4.78;2.05;;;;;;;22.31;17.33;101214.77;1712890;83;21060;-71
2022/05/06 09:54:01;;;;;;;5.42;2.00;;;;;;;22.51;17.49;101204.48;1712375;83;21111;-71
2022/05/06 09:56:28;;;;;;;8.55;2.55;;;;;;;22.88;17.12;101193.81;1712821;82;21586;-73
2022/05/06 09:58:56;;;;;;;6.30;2.35;;;;;;;22.68;17.27;101201.94;1713060;83;21617;-73
2022/05/06 10:01:23;;;;;;;8.08;2.75;;;;;;;22.55;17.50;101201.97;1712986;83;21049;-73
2022/05/06 10:03:54;;;;;;;6.87;3.98;;;;;;;22.35;17.89;101196.64;1713202;83;21066;-74
2022/05/06 10:06:25;;;;;;;7.72;3.10;;;;;;;22.26;17.84;101202.64;1713225;83;21962;-72
2022/05/06 10:08:55;;;;;;;5.22;2.27;;;;;;;22.10;18.15;101206.34;1713312;83;21010;-73
2022/05/06 10:11:28;;;;;;;7.22;2.00;;;;;;;22.17;17.79;101194.71;1713321;83;21066;-73
2022/05/06 10:13:57;;;;;;;8.80;2.05;;;;;;;22.36;17.66;101194.32;1713153;83;21049;-74
2022/05/06 10:16:24;;;;;;;5.95;2.10;;;;;;;22.81;17.61;101198.27;1712462;83;21533;-73
2022/05/06 10:18:50;;;;;;;6.95;2.55;;;;;;;23.09;17.10;101196.31;1670243;83;21120;-73
2022/05/06 10:21:17;;;;;;;2.65;2.00;;;;;;;23.18;16.41;101188.92;1712936;83;21105;-71
2022/05/06 10:23:54;;;;;;;7.30;1.95;;;;;;;23.20;16.91;101191.51;1713045;83;21088;-72
2022/05/06 10:26:40;;;;;;;4.90;1.90;;;;;;;23.32;16.95;101198.66;1712970;83;21590;-71
2022/05/06 10:35:02;;;;;;;5.87;1.75;;;;;;;22.19;18.34;101176.20;1707259;84;21077;-72
2022/05/06 10:37:47;;;;;;;4.60;2.10;;;;;;;22.57;17.71;101179.91;1700438;84;21108;-73
2022/05/06 10:40:30;;;;;;;5.95;1.98;;;;;;;22.63;17.85;101174.93;1707124;84;21125;-73
2022/05/06 10:42:57;;;;;;;4.17;2.12;;;;;;;22.76;17.80;101172.23;1707275;82;21112;-72
2022/05/06 10:45:28;;;;;;;6.92;2.12;;;;;;;22.87;17.16;101169.25;1686898;84;21243;-74
2022/05/06 10:47:55;;;;;;;3.37;2.25;;;;;;;23.03;16.95;101171.26;1707394;84;21113;-73
2022/05/06 10:53:05;;;;;;;3.00;1.92;;;;;;;23.41;16.66;101166.21;1795852;79;22651;-71
2022/05/06 10:55:34;;;;;;;9.65;2.30;;;;;;;22.98;17.13;101167.99;1756534;81;21486;-72
2022/05/06 10:58:04;;;;;;;4.92;2.27;;;;;;;22.99;17.62;101167.07;1789827;80;21267;-73
2022/05/06 11:00:33;;;;;;;4.53;1.90;;;;;;;23.08;17.10;101155.66;1790365;80;21631;-73
2022/05/06 11:03:00;;;;;;;4.75;1.87;;;;;;;23.21;17.19;101145.72;1790505;80;20993;-72
2022/05/06 11:05:29;;;;;;;5.42;2.05;;;;;;;23.47;17.27;101138.87;1790480;80;21535;-72
2022/05/06 11:07:59;;;;;;;8.03;2.20;;;;;;;23.74;17.29;101142.69;1790594;80;21012;-72
2022/05/06 11:10:29;;;;;;;9.83;2.10;;;;;;;23.53;17.04;101141.09;1790585;80;21199;-71
2022/05/06 11:12:57;;;;;;;6.45;2.10;;;;;;;23.13;17.32;101141.87;1790661;80;26401;-74
2022/05/06 11:15:33;;;;;;;9.55;2.50;;;;;;;22.88;17.36;101135.58;1790252;80;21009;-72
2022/05/06 11:18:05;;;;;;;3.87;2.05;;;;;;;22.87;17.66;101123.59;1790762;80;21521;-73
2022/05/06 11:20:39;;;;;;;4.83;2.15;;;;;;;22.97;17.78;101124.66;1790409;80;21085;-72
2022/05/06 11:23:15;;;;;;;4.22;2.00;;;;;;;23.16;17.87;101104.87;1790528;80;21250;-71
2022/05/06 11:25:46;;;;;;;7.20;2.65;;;;;;;23.31;17.08;101113.64;1790669;80;21374;-72
2022/05/06 11:28:21;;;;;;;7.70;2.12;;;;;;;23.21;17.35;101111.25;1790619;80;21480;-72
2022/05/06 11:30:51;;;;;;;7.15;2.08;;;;;;;23.09;17.79;101112.17;1790490;80;21189;-72
2022/05/06 11:33:28;;;;;;;4.65;2.20;;;;;;;22.79;16.94;101110.73;1790650;80;21474;-74
2022/05/06 11:36:03;;;;;;;11.22;2.70;;;;;;;22.62;17.49;101109.28;1790706;80;21774;-73
2022/05/06 11:38:34;;;;;;;5.75;2.42;;;;;;;22.56;17.17;101105.69;1790648;80;21044;-71
2022/05/06 11:41:10;;;;;;;6.17;2.40;;;;;;;22.31;17.33;101106.09;1790939;80;21068;-73
2022/05/06 11:43:38;;;;;;;6.72;2.25;;;;;;;21.64;18.13;101114.28;1790608;80;21018;-73
2022/05/06 11:48:59;;;;;;;3.67;2.27;;;;;;;21.37;17.86;101100.43;1790551;80;21136;-71
2022/05/06 11:51:30;;;;;;;12.95;2.27;;;;;;;21.78;17.79;101094.58;1788720;80;21580;-71
2022/05/06 11:53:57;;;;;;;4.00;2.22;;;;;;;21.91;17.60;101088.75;1779427;80;21522;-72
2022/05/06 11:56:27;;;;;;;5.25;2.55;;;;;;;22.03;17.89;101091.55;1779345;80;21097;-74
2022/05/06 11:58:57;;;;;;;6.08;2.70;;;;;;;22.04;17.63;101096.81;1779949;80;21104;-72
2022/05/06 12:01:30;;;;;;;5.50;2.37;;;;;;;21.94;16.91;101091.70;1779335;80;21820;-72
2022/05/06 12:04:10;;;;;;;5.12;2.50;;;;;;;22.00;17.68;101082.74;1778751;80;20994;-72
2022/05/06 12:06:41;;;;;;;5.72;2.62;;;;;;;22.22;17.05;101081.25;1778946;80;21458;-71
2022/05/06 12:09:13;;;;;;;7.30;2.12;;;;;;;22.20;16.71;101085.83;1779371;80;20989;-72
2022/05/06 12:11:41;;;;;;;9.23;2.20;;;;;;;22.08;16.58;101084.03;1778940;80;21080;-72
2022/05/06 12:14:17;;;;;;;7.12;2.30;;;;;;;21.92;16.67;101082.41;1779137;80;21092;-71
2022/05/06 12:17:00;;;;;;;3.50;2.40;;;;;;;21.61;16.46;101074.78;1778613;80;21020;-74
2022/05/06 12:19:42;;;;;;;7.30;4.45;;;;;;;21.49;16.96;101072.47;1779037;80;21524;-73
2022/05/06 12:22:24;;;;;;;6.90;2.72;;;;;;;21.56;17.55;101067.06;1778624;80;21565;-71
2022/05/06 12:24:58;;;;;;;7.97;2.87;;;;;;;21.52;17.39;101063.72;1779099;80;21049;-72
2022/05/06 12:27:37;;;;;;;5.55;2.37;;;;;;;21.36;16.83;101071.05;1778717;80;22246;-72
2022/05/06 12:30:08;;;;;;;5.53;2.47;;;;;;;21.21;17.43;101064.03;1778906;80;21177;-72
2022/05/06 12:32:40;;;;;;;7.58;2.27;;;;;;;21.28;17.39;101061.31;1776342;80;21041;-72
2022/05/06 12:35:14;;;;;;;7.15;2.27;;;;;;;21.29;17.71;101063.05;1779214;80;21048;-73
2022/05/06 12:37:59;;;;;;;4.75;2.52;;;;;;;21.18;18.24;101050.85;1778680;80;21068;-73
2022/05/06 12:40:33;;;;;;;7.08;2.70;;;;;;;21.29;18.70;101057.69;1779038;80;21204;-72
2022/05/06 12:43:08;;;;;;;3.87;2.50;;;;;;;21.05;19.09;101057.03;1778672;80;21045;-72
2022/05/06 12:45:35;;;;;;;5.25;2.47;;;;;;;20.83;18.30;101048.70;1778887;80;21068;-73